<?xml version='1.0' encoding='UTF-8'?><gpx version="1.1" creator="JPX - https://github.com/jenetics/jpx" xmlns="http://www.topografix.com/GPX/1/1"><trk><trkseg><trkpt lat="43.041484451372945" lon="10.602532792073543"><ele>90.0</ele><time>2026-03-27T15:40:26.862Z</time></trkpt><trkpt lat="43.041447014807986" lon="10.602425590341442"><ele>90.0</ele><time>2026-03-27T15:40:27.862Z</time></trkpt><trkpt lat="43.041395038288464" lon="10.60236048803839"><ele>90.0</ele><time>2026-03-27T15:40:28.862Z</time></trkpt><trkpt lat="43.04133930752943" lon="10.602297940829946"><ele>90.0</ele><time>2026-03-27T15:40:30.862Z</time></trkpt><trkpt lat="43.04128175731324" lon="10.602201466618316"><ele>90.0</ele><time>2026-03-27T15:40:35.862Z</time></trkpt><trkpt lat="43.04127781259478" lon="10.602097042205873"><ele>90.0</ele><time>2026-03-27T15:40:38.862Z</time></trkpt><trkpt lat="43.04132160296126" lon="10.602027056964806"><ele>91.25</ele><time>2026-03-27T15:40:41.862Z</time></trkpt><trkpt lat="43.041369158841455" lon="10.60195791008096"><ele>92.5</ele><time>2026-03-27T15:40:44.862Z</time></trkpt><trkpt lat="43.04143521559743" lon="10.601923922574125"><ele>93.75</ele><time>2026-03-27T15:40:49.862Z</time></trkpt><trkpt lat="43.04168328102456" lon="10.601898209295598"><ele>95.0</ele><time>2026-03-27T15:41:00.862Z</time></trkpt><trkpt lat="43.0417562915364" lon="10.601924723685501"><ele>96.66666666666667</ele><time>2026-03-27T15:41:02.862Z</time></trkpt><trkpt lat="43.04183514168639" lon="10.601961770150929"><ele>98.33333333333334</ele><time>2026-03-27T15:41:05.862Z</time></trkpt><trkpt lat="43.04190688620491" lon="10.60199312711497"><ele>100.0</ele><time>2026-03-27T15:41:07.862Z</time></trkpt><trkpt lat="43.041991780701906" lon="10.602032950984897"><ele>101.66666666666667</ele><time>2026-03-27T15:41:10.862Z</time></trkpt><trkpt lat="43.04205546924042" lon="10.602053879470391"><ele>103.33333333333333</ele><time>2026-03-27T15:41:12.862Z</time></trkpt><trkpt lat="43.04216129716139" lon="10.602118424694721"><ele>105.0</ele><time>2026-03-27T15:41:15.862Z</time></trkpt><trkpt lat="43.042250941984435" lon="10.602179029273213"><ele>105.0</ele><time>2026-03-27T15:41:17.862Z</time></trkpt><trkpt lat="43.04232489592249" lon="10.602216594778346"><ele>105.0</ele><time>2026-03-27T15:41:19.862Z</time></trkpt><trkpt lat="43.042388313502194" lon="10.602275308725162"><ele>105.0</ele><time>2026-03-27T15:41:22.862Z</time></trkpt><trkpt lat="43.04245761361747" lon="10.602312368439044"><ele>105.0</ele><time>2026-03-27T15:41:24.862Z</time></trkpt><trkpt lat="43.042543651782424" lon="10.602342055408242"><ele>105.0</ele><time>2026-03-27T15:41:27.862Z</time></trkpt><trkpt lat="43.04262701157481" lon="10.602359905981741"><ele>105.0</ele><time>2026-03-27T15:41:30.862Z</time></trkpt><trkpt lat="43.04271127999763" lon="10.602364510362218"><ele>109.66666666666667</ele><time>2026-03-27T15:41:33.862Z</time></trkpt><trkpt lat="43.04281337265031" lon="10.602388132540419"><ele>114.33333333333334</ele><time>2026-03-27T15:41:41.862Z</time></trkpt><trkpt lat="43.04288709064854" lon="10.602403378339543"><ele>119.0</ele><time>2026-03-27T15:41:45.862Z</time></trkpt><trkpt lat="43.04299436381609" lon="10.602442827668831"><ele>123.66666666666667</ele><time>2026-03-27T15:41:50.862Z</time></trkpt><trkpt lat="43.04304563396004" lon="10.602512990019186"><ele>128.33333333333334</ele><time>2026-03-27T15:41:55.862Z</time></trkpt><trkpt lat="43.04312828755175" lon="10.602503729092533"><ele>133.0</ele><time>2026-03-27T15:42:00.862Z</time></trkpt><trkpt lat="43.04316371808266" lon="10.602432032642675"><ele>139.0</ele><time>2026-03-27T15:42:03.862Z</time></trkpt><trkpt lat="43.043324975764705" lon="10.60239451047544"><ele>145.0</ele><time>2026-03-27T15:42:17.861Z</time></trkpt><trkpt lat="43.04347613066612" lon="10.60238046281259"><ele>151.0</ele><time>2026-03-27T15:42:24.861Z</time></trkpt><trkpt lat="43.04354848150104" lon="10.602357070025462"><ele>157.0</ele><time>2026-03-27T15:42:26.861Z</time></trkpt><trkpt lat="43.043614945340686" lon="10.602313742850123"><ele>157.0</ele><time>2026-03-27T15:42:31.861Z</time></trkpt><trkpt lat="43.04356996234551" lon="10.602205457723949"><ele>157.0</ele><time>2026-03-27T15:42:37.861Z</time></trkpt><trkpt lat="43.04351678095872" lon="10.602066103487026"><ele>157.0</ele><time>2026-03-27T15:42:40.861Z</time></trkpt><trkpt lat="43.04344778254052" lon="10.60193263241131"><ele>157.0</ele><time>2026-03-27T15:42:42.861Z</time></trkpt><trkpt lat="43.043377811043854" lon="10.601862922416368"><ele>157.0</ele><time>2026-03-27T15:42:46.861Z</time></trkpt><trkpt lat="43.04331505160402" lon="10.601785852425008"><ele>153.42857142857142</ele><time>2026-03-27T15:42:48.861Z</time></trkpt><trkpt lat="43.04327148408517" lon="10.601695681565742"><ele>149.85714285714286</ele><time>2026-03-27T15:42:50.861Z</time></trkpt><trkpt lat="43.04323998475061" lon="10.601615158540861"><ele>146.28571428571428</ele><time>2026-03-27T15:42:53.861Z</time></trkpt><trkpt lat="43.043214682654416" lon="10.601525731752812"><ele>142.71428571428572</ele><time>2026-03-27T15:42:57.861Z</time></trkpt><trkpt lat="43.04322268520268" lon="10.601434241562183"><ele>139.14285714285714</ele><time>2026-03-27T15:43:00.861Z</time></trkpt><trkpt lat="43.043162359583924" lon="10.601390912840719"><ele>135.57142857142856</ele><time>2026-03-27T15:43:04.861Z</time></trkpt><trkpt lat="43.04309320416395" lon="10.601389062350734"><ele>132.0</ele><time>2026-03-27T15:43:07.861Z</time></trkpt><trkpt lat="43.04302202865466" lon="10.60133756876117"><ele>132.0</ele><time>2026-03-27T15:43:13.861Z</time></trkpt><trkpt lat="43.04298603746677" lon="10.60125563896899"><ele>132.0</ele><time>2026-03-27T15:43:17.861Z</time></trkpt><trkpt lat="43.04292941257842" lon="10.601153220674753"><ele>132.0</ele><time>2026-03-27T15:43:20.861Z</time></trkpt><trkpt lat="43.0428908068628" lon="10.601079788864904"><ele>132.0</ele><time>2026-03-27T15:43:23.861Z</time></trkpt><trkpt lat="43.04282489803209" lon="10.60101102431578"><ele>132.0</ele><time>2026-03-27T15:43:26.861Z</time></trkpt><trkpt lat="43.04275828862345" lon="10.60095556399623"><ele>132.0</ele><time>2026-03-27T15:43:30.861Z</time></trkpt><trkpt lat="43.04272281365084" lon="10.600876656374838"><ele>130.57142857142856</ele><time>2026-03-27T15:43:34.861Z</time></trkpt><trkpt lat="43.04266352359816" lon="10.600818585415368"><ele>129.14285714285714</ele><time>2026-03-27T15:43:37.861Z</time></trkpt><trkpt lat="43.04261947793924" lon="10.600739795018091"><ele>127.71428571428571</ele><time>2026-03-27T15:43:41.861Z</time></trkpt><trkpt lat="43.042576718277616" lon="10.60067209577918"><ele>126.28571428571428</ele><time>2026-03-27T15:43:47.861Z</time></trkpt><trkpt lat="43.0425349002066" lon="10.600596490512372"><ele>124.85714285714286</ele><time>2026-03-27T15:43:59.861Z</time></trkpt><trkpt lat="43.04248511225952" lon="10.600509167282853"><ele>123.42857142857142</ele><time>2026-03-27T15:44:06.861Z</time></trkpt><trkpt lat="43.042432959088835" lon="10.600460168189992"><ele>121.99999999999999</ele><time>2026-03-27T15:44:09.861Z</time></trkpt><trkpt lat="43.042398888147055" lon="10.60038080400148"><ele>117.33333333333333</ele><time>2026-03-27T15:44:11.86Z</time></trkpt><trkpt lat="43.04237542651711" lon="10.600294255955466"><ele>112.66666666666666</ele><time>2026-03-27T15:44:16.86Z</time></trkpt><trkpt lat="43.04230752091339" lon="10.600244012497196"><ele>108.0</ele><time>2026-03-27T15:44:21.86Z</time></trkpt><trkpt lat="43.0422556031981" lon="10.600166737000427"><ele>103.33333333333333</ele><time>2026-03-27T15:44:26.86Z</time></trkpt><trkpt lat="43.04221466281598" lon="10.60008875114278"><ele>98.66666666666666</ele><time>2026-03-27T15:44:31.86Z</time></trkpt><trkpt lat="43.04215770990602" lon="10.600016400104218"><ele>94.0</ele><time>2026-03-27T15:44:37.86Z</time></trkpt><trkpt lat="43.04206089365993" lon="10.599976479130776"><ele>94.0</ele><time>2026-03-27T15:44:41.86Z</time></trkpt><trkpt lat="43.0419927771026" lon="10.599964029439942"><ele>94.0</ele><time>2026-03-27T15:44:44.86Z</time></trkpt><trkpt lat="43.04190487409981" lon="10.599977320022248"><ele>94.0</ele><time>2026-03-27T15:44:50.86Z</time></trkpt><trkpt lat="43.041824704126874" lon="10.599965125310208"><ele>94.0</ele><time>2026-03-27T15:44:54.86Z</time></trkpt><trkpt lat="43.04176009676133" lon="10.599996574789891"><ele>94.0</ele><time>2026-03-27T15:44:55.86Z</time></trkpt><trkpt lat="43.04169504101482" lon="10.600027980708868"><ele>94.0</ele><time>2026-03-27T15:44:56.86Z</time></trkpt><trkpt lat="43.041608527141214" lon="10.600072143343848"><ele>94.0</ele><time>2026-03-27T15:44:58.86Z</time></trkpt><trkpt lat="43.04161914382482" lon="10.600171511250837"><ele>94.0</ele><time>2026-03-27T15:45:05.86Z</time></trkpt><trkpt lat="43.041699870178874" lon="10.600118656339616"><ele>94.0</ele><time>2026-03-27T15:45:08.86Z</time></trkpt><trkpt lat="43.041770243584516" lon="10.600053493513974"><ele>94.0</ele><time>2026-03-27T15:45:11.86Z</time></trkpt><trkpt lat="43.04184833676203" lon="10.59996341316305"><ele>94.0</ele><time>2026-03-27T15:45:14.86Z</time></trkpt><trkpt lat="43.041953204486745" lon="10.599880103993419"><ele>94.0</ele><time>2026-03-27T15:45:16.86Z</time></trkpt><trkpt lat="43.042045380267076" lon="10.599802679432484"><ele>94.0</ele><time>2026-03-27T15:45:18.86Z</time></trkpt><trkpt lat="43.04211094423184" lon="10.59971068685019"><ele>94.0</ele><time>2026-03-27T15:45:22.859Z</time></trkpt><trkpt lat="43.04230562074823" lon="10.599720874279312"><ele>94.0</ele><time>2026-03-27T15:45:27.859Z</time></trkpt><trkpt lat="43.042386518307005" lon="10.59975317220238"><ele>94.0</ele><time>2026-03-27T15:45:29.859Z</time></trkpt><trkpt lat="43.04243014171093" lon="10.599816714488494"><ele>94.0</ele><time>2026-03-27T15:45:42.859Z</time></trkpt><trkpt lat="43.04246082564855" lon="10.599894853023239"><ele>94.0</ele><time>2026-03-27T15:45:48.859Z</time></trkpt><trkpt lat="43.04251863696959" lon="10.599934891281855"><ele>94.0</ele><time>2026-03-27T15:45:54.859Z</time></trkpt><trkpt lat="43.0426279036025" lon="10.599948654468225"><ele>94.0</ele><time>2026-03-27T15:45:59.859Z</time></trkpt><trkpt lat="43.04269214112054" lon="10.59997906442511"><ele>94.0</ele><time>2026-03-27T15:46:05.859Z</time></trkpt><trkpt lat="43.04265246044512" lon="10.600059117441912"><ele>94.0</ele><time>2026-03-27T15:46:10.859Z</time></trkpt><trkpt lat="43.04261637182168" lon="10.60014801752028"><ele>96.33333333333333</ele><time>2026-03-27T15:46:14.859Z</time></trkpt><trkpt lat="43.04258429672463" lon="10.600227721191334"><ele>98.66666666666666</ele><time>2026-03-27T15:46:17.859Z</time></trkpt><trkpt lat="43.0426906153182" lon="10.600285810025946"><ele>101.0</ele><time>2026-03-27T15:46:26.86Z</time></trkpt><trkpt lat="43.04267067190945" lon="10.60038182394613"><ele>103.33333333333333</ele><time>2026-03-27T15:46:31.859Z</time></trkpt><trkpt lat="43.042657619410484" lon="10.600471553829175"><ele>105.66666666666667</ele><time>2026-03-27T15:46:34.859Z</time></trkpt><trkpt lat="43.04265466528245" lon="10.60058097843595"><ele>108.0</ele><time>2026-03-27T15:46:38.859Z</time></trkpt><trkpt lat="43.04267259269369" lon="10.600664862032634"><ele>107.33333333333333</ele><time>2026-03-27T15:46:42.859Z</time></trkpt><trkpt lat="43.042617299934065" lon="10.600740612332944"><ele>106.66666666666666</ele><time>2026-03-27T15:46:57.859Z</time></trkpt><trkpt lat="43.04256115903403" lon="10.600666155636914"><ele>106.0</ele><time>2026-03-27T15:47:02.859Z</time></trkpt><trkpt lat="43.0425134114203" lon="10.600602996971162"><ele>105.33333333333333</ele><time>2026-03-27T15:47:06.859Z</time></trkpt><trkpt lat="43.04247140676577" lon="10.600512876599018"><ele>104.66666666666666</ele><time>2026-03-27T15:47:12.859Z</time></trkpt><trkpt lat="43.042410951368694" lon="10.600417988248077"><ele>104.0</ele><time>2026-03-27T15:47:15.859Z</time></trkpt><trkpt lat="43.042383318968284" lon="10.600320301989262"><ele>102.33333333333333</ele><time>2026-03-27T15:47:18.859Z</time></trkpt><trkpt lat="43.04233074618484" lon="10.600272033714925"><ele>100.66666666666666</ele><time>2026-03-27T15:47:21.859Z</time></trkpt><trkpt lat="43.04228042505879" lon="10.60016045320718"><ele>99.0</ele><time>2026-03-27T15:47:25.859Z</time></trkpt><trkpt lat="43.042236146516956" lon="10.600081403872064"><ele>97.33333333333333</ele><time>2026-03-27T15:47:28.859Z</time></trkpt><trkpt lat="43.04218403667159" lon="10.60001740818116"><ele>95.66666666666666</ele><time>2026-03-27T15:47:31.859Z</time></trkpt><trkpt lat="43.042098461351905" lon="10.599980082943182"><ele>94.0</ele><time>2026-03-27T15:47:34.859Z</time></trkpt><trkpt lat="43.04206452064549" lon="10.599891838287254"><ele>94.0</ele><time>2026-03-27T15:47:37.859Z</time></trkpt><trkpt lat="43.04216847936002" lon="10.599783762731237"><ele>94.0</ele><time>2026-03-27T15:47:39.859Z</time></trkpt><trkpt lat="43.042273072062706" lon="10.599685407276715"><ele>94.0</ele><time>2026-03-27T15:47:40.859Z</time></trkpt><trkpt lat="43.04238352793911" lon="10.59960808747036"><ele>94.0</ele><time>2026-03-27T15:47:41.859Z</time></trkpt><trkpt lat="43.0425250814926" lon="10.599541321713472"><ele>93.25</ele><time>2026-03-27T15:47:42.859Z</time></trkpt><trkpt lat="43.0426869395074" lon="10.599477694362184"><ele>92.5</ele><time>2026-03-27T15:47:43.859Z</time></trkpt><trkpt lat="43.04281590546889" lon="10.59943701317713"><ele>91.75</ele><time>2026-03-27T15:47:44.859Z</time></trkpt><trkpt lat="43.0429026396522" lon="10.599419691606215"><ele>91.0</ele><time>2026-03-27T15:47:45.859Z</time></trkpt><trkpt lat="43.043002017307224" lon="10.599413304580429"><ele>91.0</ele><time>2026-03-27T15:47:46.859Z</time></trkpt><trkpt lat="43.04310514603412" lon="10.599395360327701"><ele>91.0</ele><time>2026-03-27T15:47:47.859Z</time></trkpt><trkpt lat="43.043211366178895" lon="10.599400336707241"><ele>91.0</ele><time>2026-03-27T15:47:48.859Z</time></trkpt><trkpt lat="43.043303193753054" lon="10.59942834998175"><ele>91.0</ele><time>2026-03-27T15:47:49.859Z</time></trkpt><trkpt lat="43.04339104123891" lon="10.599462837335171"><ele>91.0</ele><time>2026-03-27T15:47:50.859Z</time></trkpt><trkpt lat="43.043453131442185" lon="10.59950821476431"><ele>94.33333333333333</ele><time>2026-03-27T15:47:51.859Z</time></trkpt><trkpt lat="43.04351739333839" lon="10.599581501260001"><ele>97.66666666666666</ele><time>2026-03-27T15:47:52.859Z</time></trkpt><trkpt lat="43.043603636876874" lon="10.599699428422685"><ele>101.0</ele><time>2026-03-27T15:47:53.859Z</time></trkpt><trkpt lat="43.0436663669646" lon="10.599785173162768"><ele>104.33333333333333</ele><time>2026-03-27T15:47:54.859Z</time></trkpt><trkpt lat="43.043716888040855" lon="10.599849074641234"><ele>107.66666666666667</ele><time>2026-03-27T15:47:55.859Z</time></trkpt><trkpt lat="43.043769111296946" lon="10.599909581054984"><ele>111.0</ele><time>2026-03-27T15:47:56.859Z</time></trkpt><trkpt lat="43.043835902455605" lon="10.600015641358507"><ele>111.0</ele><time>2026-03-27T15:47:58.859Z</time></trkpt><trkpt lat="43.04389930902684" lon="10.600039747294163"><ele>111.0</ele><time>2026-03-27T15:47:59.859Z</time></trkpt><trkpt lat="43.044159295548624" lon="10.600056816553861"><ele>111.0</ele><time>2026-03-27T15:48:02.859Z</time></trkpt><trkpt lat="43.04424200495779" lon="10.600092373109979"><ele>111.0</ele><time>2026-03-27T15:48:03.859Z</time></trkpt><trkpt lat="43.04431647463057" lon="10.600107751259763"><ele>109.6</ele><time>2026-03-27T15:48:04.859Z</time></trkpt><trkpt lat="43.04438417581704" lon="10.600146953591288"><ele>108.19999999999999</ele><time>2026-03-27T15:48:05.859Z</time></trkpt><trkpt lat="43.044508873000694" lon="10.600169820038744"><ele>106.80000000000001</ele><time>2026-03-27T15:48:06.859Z</time></trkpt><trkpt lat="43.04464374048118" lon="10.600204633400873"><ele>105.4</ele><time>2026-03-27T15:48:07.859Z</time></trkpt><trkpt lat="43.04474666400497" lon="10.600244281628484"><ele>104.0</ele><time>2026-03-27T15:48:08.859Z</time></trkpt><trkpt lat="43.0448377117534" lon="10.600271463750673"><ele>103.99999999999999</ele><time>2026-03-27T15:48:09.859Z</time></trkpt><trkpt lat="43.04492833309195" lon="10.600302713101984"><ele>104.0</ele><time>2026-03-27T15:48:10.859Z</time></trkpt><trkpt lat="43.0450278133817" lon="10.600335741293621"><ele>104.0</ele><time>2026-03-27T15:48:11.859Z</time></trkpt><trkpt lat="43.04511702917278" lon="10.600370326586683"><ele>104.0</ele><time>2026-03-27T15:48:12.859Z</time></trkpt><trkpt lat="43.04518838276021" lon="10.600402592994666"><ele>103.99999999999999</ele><time>2026-03-27T15:48:13.859Z</time></trkpt><trkpt lat="43.04525254714189" lon="10.600412239198763"><ele>104.0</ele><time>2026-03-27T15:48:14.859Z</time></trkpt><trkpt lat="43.04523743155783" lon="10.600508877099115"><ele>108.16666666666666</ele><time>2026-03-27T15:48:22.859Z</time></trkpt><trkpt lat="43.045240428475985" lon="10.600608020481406"><ele>112.33333333333333</ele><time>2026-03-27T15:48:25.858Z</time></trkpt><trkpt lat="43.04521504504557" lon="10.600708173487433"><ele>116.5</ele><time>2026-03-27T15:48:28.858Z</time></trkpt><trkpt lat="43.04520684464947" lon="10.600839665042503"><ele>120.66666666666666</ele><time>2026-03-27T15:48:31.858Z</time></trkpt><trkpt lat="43.04514042524311" lon="10.600879499536825"><ele>124.83333333333333</ele><time>2026-03-27T15:48:36.858Z</time></trkpt><trkpt lat="43.04506494232495" lon="10.600875179640022"><ele>129.0</ele><time>2026-03-27T15:48:40.858Z</time></trkpt><trkpt lat="43.04498875136101" lon="10.60092296773757"><ele>129.0</ele><time>2026-03-27T15:48:43.858Z</time></trkpt><trkpt lat="43.04490977247474" lon="10.600900829967587"><ele>129.0</ele><time>2026-03-27T15:48:46.858Z</time></trkpt><trkpt lat="43.04485097390409" lon="10.600867627286418"><ele>129.0</ele><time>2026-03-27T15:48:49.858Z</time></trkpt><trkpt lat="43.04478108414274" lon="10.600881195622256"><ele>129.0</ele><time>2026-03-27T15:48:54.858Z</time></trkpt><trkpt lat="43.044972598138465" lon="10.600896703150804"><ele>129.0</ele><time>2026-03-27T15:49:18.858Z</time></trkpt><trkpt lat="43.04511566755201" lon="10.600887627636368"><ele>128.99999999999997</ele><time>2026-03-27T15:49:24.858Z</time></trkpt><trkpt lat="43.04517416046679" lon="10.60081594740293"><ele>129.0</ele><time>2026-03-27T15:49:27.858Z</time></trkpt><trkpt lat="43.045223116007364" lon="10.60075516369064"><ele>129.0</ele><time>2026-03-27T15:49:31.858Z</time></trkpt><trkpt lat="43.04527620281859" lon="10.600705187707796"><ele>129.0</ele><time>2026-03-27T15:49:34.858Z</time></trkpt><trkpt lat="43.04531493096836" lon="10.600633290733127"><ele>129.0</ele><time>2026-03-27T15:49:37.858Z</time></trkpt><trkpt lat="43.045379728731405" lon="10.60063769667301"><ele>128.99999999999997</ele><time>2026-03-27T15:49:40.858Z</time></trkpt><trkpt lat="43.04543487747807" lon="10.600742885916208"><ele>129.0</ele><time>2026-03-27T15:49:43.858Z</time></trkpt><trkpt lat="43.04547183549251" lon="10.600833786611753"><ele>128.99999999999997</ele><time>2026-03-27T15:49:45.858Z</time></trkpt><trkpt lat="43.045526222589196" lon="10.600882975670936"><ele>129.0</ele><time>2026-03-27T15:49:48.858Z</time></trkpt><trkpt lat="43.04561385007404" lon="10.600876790169586"><ele>129.0</ele><time>2026-03-27T15:50:09.858Z</time></trkpt><trkpt lat="43.04556121230724" lon="10.600805899029218"><ele>129.0</ele><time>2026-03-27T15:50:16.858Z</time></trkpt><trkpt lat="43.04562094482726" lon="10.600755914471964"><ele>129.0</ele><time>2026-03-27T15:50:25.858Z</time></trkpt><trkpt lat="43.04565744299945" lon="10.600667228699123"><ele>128.99999999999997</ele><time>2026-03-27T15:50:30.858Z</time></trkpt><trkpt lat="43.045645977547245" lon="10.600568428304443"><ele>129.0</ele><time>2026-03-27T15:50:32.858Z</time></trkpt><trkpt lat="43.04563134598292" lon="10.600473637296163"><ele>129.0</ele><time>2026-03-27T15:50:35.858Z</time></trkpt><trkpt lat="43.04557158630096" lon="10.6003993067019"><ele>129.0</ele><time>2026-03-27T15:50:38.857Z</time></trkpt><trkpt lat="43.045499762864196" lon="10.600302854073558"><ele>129.0</ele><time>2026-03-27T15:50:39.857Z</time></trkpt><trkpt lat="43.04539254510014" lon="10.600243686857192"><ele>129.0</ele><time>2026-03-27T15:50:41.857Z</time></trkpt><trkpt lat="43.045325276732086" lon="10.600235251437049"><ele>129.0</ele><time>2026-03-27T15:50:42.857Z</time></trkpt><trkpt lat="43.04526044821301" lon="10.600231214229973"><ele>129.0</ele><time>2026-03-27T15:50:43.857Z</time></trkpt><trkpt lat="43.04519715420033" lon="10.600233068950805"><ele>125.5</ele><time>2026-03-27T15:50:44.857Z</time></trkpt><trkpt lat="43.04513674082705" lon="10.600201921206928"><ele>122.0</ele><time>2026-03-27T15:50:45.857Z</time></trkpt><trkpt lat="43.045057237477465" lon="10.600173529020253"><ele>118.5</ele><time>2026-03-27T15:50:46.857Z</time></trkpt><trkpt lat="43.04500042444815" lon="10.600107988555125"><ele>115.0</ele><time>2026-03-27T15:50:47.857Z</time></trkpt><trkpt lat="43.044887076258476" lon="10.600011132954558"><ele>111.5</ele><time>2026-03-27T15:50:49.857Z</time></trkpt><trkpt lat="43.04482657984778" lon="10.5999575121927"><ele>108.0</ele><time>2026-03-27T15:50:50.857Z</time></trkpt><trkpt lat="43.044758219309735" lon="10.599925967582656"><ele>107.2</ele><time>2026-03-27T15:50:51.857Z</time></trkpt><trkpt lat="43.04469855049283" lon="10.599884529613096"><ele>106.4</ele><time>2026-03-27T15:50:52.857Z</time></trkpt><trkpt lat="43.04459767110434" lon="10.599846006163581"><ele>105.60000000000001</ele><time>2026-03-27T15:50:54.857Z</time></trkpt><trkpt lat="43.044509293931846" lon="10.599829670352138"><ele>104.80000000000001</ele><time>2026-03-27T15:50:56.857Z</time></trkpt><trkpt lat="43.0444223782729" lon="10.599826688298359"><ele>104.0</ele><time>2026-03-27T15:50:58.857Z</time></trkpt><trkpt lat="43.04431060940056" lon="10.59974771416326"><ele>103.99999999999999</ele><time>2026-03-27T15:51:00.857Z</time></trkpt><trkpt lat="43.04423257297273" lon="10.599705722982623"><ele>104.0</ele><time>2026-03-27T15:51:02.857Z</time></trkpt><trkpt lat="43.04415787449055" lon="10.599668219726315"><ele>104.0</ele><time>2026-03-27T15:51:04.857Z</time></trkpt><trkpt lat="43.04409771193997" lon="10.599586628154988"><ele>104.0</ele><time>2026-03-27T15:51:06.857Z</time></trkpt><trkpt lat="43.044050139461426" lon="10.599468461442493"><ele>103.99999999999999</ele><time>2026-03-27T15:51:08.857Z</time></trkpt><trkpt lat="43.04399428386544" lon="10.599371355414611"><ele>104.0</ele><time>2026-03-27T15:51:10.857Z</time></trkpt><trkpt lat="43.04391153479972" lon="10.599264796964864"><ele>101.2</ele><time>2026-03-27T15:51:12.857Z</time></trkpt><trkpt lat="43.04383738254689" lon="10.599205492695017"><ele>98.4</ele><time>2026-03-27T15:51:14.857Z</time></trkpt><trkpt lat="43.04380191451321" lon="10.59911594509079"><ele>95.6</ele><time>2026-03-27T15:51:16.857Z</time></trkpt><trkpt lat="43.04375865961494" lon="10.599026755989309"><ele>92.8</ele><time>2026-03-27T15:51:18.857Z</time></trkpt><trkpt lat="43.04368762933177" lon="10.598911566762478"><ele>90.0</ele><time>2026-03-27T15:51:20.857Z</time></trkpt><trkpt lat="43.0436201014866" lon="10.598784885131511"><ele>90.0</ele><time>2026-03-27T15:51:22.857Z</time></trkpt><trkpt lat="43.04355891078684" lon="10.598707362676514"><ele>90.0</ele><time>2026-03-27T15:51:24.857Z</time></trkpt><trkpt lat="43.04346708579511" lon="10.598701613020083"><ele>90.0</ele><time>2026-03-27T15:51:26.857Z</time></trkpt><trkpt lat="43.043404121891186" lon="10.598628622592106"><ele>90.0</ele><time>2026-03-27T15:51:28.857Z</time></trkpt><trkpt lat="43.04332817222597" lon="10.59863471426289"><ele>90.0</ele><time>2026-03-27T15:51:32.857Z</time></trkpt><trkpt lat="43.04326923078574" lon="10.598591545126915"><ele>90.0</ele><time>2026-03-27T15:51:38.857Z</time></trkpt><trkpt lat="43.04320820953478" lon="10.598554636068265"><ele>86.66666666666667</ele><time>2026-03-27T15:51:41.857Z</time></trkpt><trkpt lat="43.04311654497022" lon="10.598479262902138"><ele>83.33333333333333</ele><time>2026-03-27T15:51:53.857Z</time></trkpt><trkpt lat="43.04305821543476" lon="10.598437569805004"><ele>80.0</ele><time>2026-03-27T15:51:55.857Z</time></trkpt><trkpt lat="43.042989946271895" lon="10.598378714946966"><ele>76.66666666666666</ele><time>2026-03-27T15:51:59.857Z</time></trkpt><trkpt lat="43.042956303990586" lon="10.59829341303696"><ele>73.33333333333333</ele><time>2026-03-27T15:52:01.857Z</time></trkpt><trkpt lat="43.04287709624543" lon="10.598220975785784"><ele>70.0</ele><time>2026-03-27T15:52:04.857Z</time></trkpt><trkpt lat="43.04275053232737" lon="10.598198535851678"><ele>70.0</ele><time>2026-03-27T15:52:06.857Z</time></trkpt><trkpt lat="43.04268507434921" lon="10.59817907610688"><ele>70.0</ele><time>2026-03-27T15:52:07.857Z</time></trkpt><trkpt lat="43.042619223577056" lon="10.598165407364329"><ele>70.0</ele><time>2026-03-27T15:52:08.857Z</time></trkpt><trkpt lat="43.042543116404545" lon="10.598148527128314"><ele>70.0</ele><time>2026-03-27T15:52:09.857Z</time></trkpt><trkpt lat="43.04244000519487" lon="10.598133082689978"><ele>70.0</ele><time>2026-03-27T15:52:11.857Z</time></trkpt><trkpt lat="43.04235987749381" lon="10.598118146633258"><ele>70.0</ele><time>2026-03-27T15:52:13.857Z</time></trkpt><trkpt lat="43.04227617551857" lon="10.598075717030346"><ele>69.8</ele><time>2026-03-27T15:52:14.857Z</time></trkpt><trkpt lat="43.04219674893151" lon="10.598049989596944"><ele>69.6</ele><time>2026-03-27T15:52:15.857Z</time></trkpt><trkpt lat="43.04210679839857" lon="10.598033466075726"><ele>69.4</ele><time>2026-03-27T15:52:16.857Z</time></trkpt><trkpt lat="43.04199710426997" lon="10.5980100613853"><ele>69.2</ele><time>2026-03-27T15:52:17.857Z</time></trkpt><trkpt lat="43.04190164326754" lon="10.598009396930335"><ele>69.0</ele><time>2026-03-27T15:52:18.857Z</time></trkpt><trkpt lat="43.04182823000263" lon="10.598022217317295"><ele>69.0</ele><time>2026-03-27T15:52:19.857Z</time></trkpt><trkpt lat="43.041724378864515" lon="10.598053728781393"><ele>69.0</ele><time>2026-03-27T15:52:21.857Z</time></trkpt><trkpt lat="43.04165427739162" lon="10.59797636496296"><ele>69.0</ele><time>2026-03-27T15:52:23.857Z</time></trkpt><trkpt lat="43.04161298489122" lon="10.597903270227796"><ele>69.0</ele><time>2026-03-27T15:52:24.857Z</time></trkpt><trkpt lat="43.04156479797972" lon="10.597807965149194"><ele>69.0</ele><time>2026-03-27T15:52:25.857Z</time></trkpt><trkpt lat="43.041508485771054" lon="10.597713868658396"><ele>69.0</ele><time>2026-03-27T15:52:26.857Z</time></trkpt><trkpt lat="43.04143491020678" lon="10.597620073512521"><ele>65.8</ele><time>2026-03-27T15:52:27.857Z</time></trkpt><trkpt lat="43.04134964067361" lon="10.59753002158784"><ele>62.60000000000001</ele><time>2026-03-27T15:52:28.857Z</time></trkpt><trkpt lat="43.04126760470977" lon="10.597451810082791"><ele>59.4</ele><time>2026-03-27T15:52:29.857Z</time></trkpt><trkpt lat="43.04120576941915" lon="10.5973818597997"><ele>56.2</ele><time>2026-03-27T15:52:30.857Z</time></trkpt><trkpt lat="43.04112986384157" lon="10.597316020903866"><ele>53.0</ele><time>2026-03-27T15:52:31.857Z</time></trkpt><trkpt lat="43.04105911061227" lon="10.597230990849562"><ele>53.0</ele><time>2026-03-27T15:52:32.857Z</time></trkpt><trkpt lat="43.04100371416832" lon="10.597111743710204"><ele>53.0</ele><time>2026-03-27T15:52:34.857Z</time></trkpt><trkpt lat="43.0410104309256" lon="10.597010577022058"><ele>53.0</ele><time>2026-03-27T15:52:36.856Z</time></trkpt><trkpt lat="43.040993178976855" lon="10.596845374131318"><ele>53.0</ele><time>2026-03-27T15:52:40.857Z</time></trkpt><trkpt lat="43.040989020608045" lon="10.596742614760622"><ele>53.0</ele><time>2026-03-27T15:52:42.857Z</time></trkpt><trkpt lat="43.04096962986603" lon="10.596606081431629"><ele>50.25</ele><time>2026-03-27T15:52:44.857Z</time></trkpt><trkpt lat="43.0410432251797" lon="10.596539627596295"><ele>47.5</ele><time>2026-03-27T15:52:46.856Z</time></trkpt><trkpt lat="43.04116789759161" lon="10.596500587147077"><ele>44.75</ele><time>2026-03-27T15:52:48.856Z</time></trkpt><trkpt lat="43.04135569658025" lon="10.596487077711926"><ele>42.0</ele><time>2026-03-27T15:52:52.856Z</time></trkpt><trkpt lat="43.04145574014678" lon="10.596511795295216"><ele>42.0</ele><time>2026-03-27T15:52:54.856Z</time></trkpt><trkpt lat="43.04152852492077" lon="10.596454989111065"><ele>42.0</ele><time>2026-03-27T15:52:56.856Z</time></trkpt><trkpt lat="43.04155705247157" lon="10.596343224412879"><ele>42.0</ele><time>2026-03-27T15:52:59.856Z</time></trkpt><trkpt lat="43.04158271614721" lon="10.596198522387485"><ele>42.0</ele><time>2026-03-27T15:53:01.856Z</time></trkpt><trkpt lat="43.04160469338611" lon="10.59609090186179"><ele>42.0</ele><time>2026-03-27T15:53:02.856Z</time></trkpt><trkpt lat="43.041633861802275" lon="10.595904096714763"><ele>42.400000000000006</ele><time>2026-03-27T15:53:04.856Z</time></trkpt><trkpt lat="43.041629117447485" lon="10.595781864840674"><ele>42.800000000000004</ele><time>2026-03-27T15:53:05.856Z</time></trkpt><trkpt lat="43.041642923639685" lon="10.595659647465407"><ele>43.2</ele><time>2026-03-27T15:53:06.856Z</time></trkpt><trkpt lat="43.04171658376515" lon="10.595517395572514"><ele>43.6</ele><time>2026-03-27T15:53:08.856Z</time></trkpt><trkpt lat="43.041789523992925" lon="10.595452626493115"><ele>44.0</ele><time>2026-03-27T15:53:09.856Z</time></trkpt><trkpt lat="43.041866920979345" lon="10.595368800314066"><ele>42.400000000000006</ele><time>2026-03-27T15:53:10.856Z</time></trkpt><trkpt lat="43.04192415350741" lon="10.595247520910842"><ele>40.800000000000004</ele><time>2026-03-27T15:53:11.856Z</time></trkpt><trkpt lat="43.04195363964198" lon="10.595110218617307"><ele>39.2</ele><time>2026-03-27T15:53:12.856Z</time></trkpt><trkpt lat="43.04195728400422" lon="10.594997631868676"><ele>37.6</ele><time>2026-03-27T15:53:13.856Z</time></trkpt><trkpt lat="43.04197492694258" lon="10.594908053048261"><ele>36.0</ele><time>2026-03-27T15:53:14.856Z</time></trkpt><trkpt lat="43.042046180727326" lon="10.594831814996308"><ele>36.0</ele><time>2026-03-27T15:53:15.856Z</time></trkpt><trkpt lat="43.04213598074394" lon="10.594760139768523"><ele>36.0</ele><time>2026-03-27T15:53:16.856Z</time></trkpt><trkpt lat="43.04221076266588" lon="10.594719997377233"><ele>36.0</ele><time>2026-03-27T15:53:17.856Z</time></trkpt><trkpt lat="43.042300844558234" lon="10.59473960361509"><ele>36.0</ele><time>2026-03-27T15:53:18.856Z</time></trkpt><trkpt lat="43.04240848905574" lon="10.594798125160585"><ele>36.0</ele><time>2026-03-27T15:53:19.856Z</time></trkpt><trkpt lat="43.04254161854738" lon="10.594893706570726"><ele>35.75</ele><time>2026-03-27T15:53:20.856Z</time></trkpt><trkpt lat="43.042685584446176" lon="10.595003357507752"><ele>35.5</ele><time>2026-03-27T15:53:21.856Z</time></trkpt><trkpt lat="43.04279051898757" lon="10.595080742756679"><ele>35.25</ele><time>2026-03-27T15:53:22.856Z</time></trkpt><trkpt lat="43.042865272729095" lon="10.595164249430457"><ele>35.0</ele><time>2026-03-27T15:53:23.856Z</time></trkpt><trkpt lat="43.042913568018704" lon="10.595332852903768"><ele>34.75</ele><time>2026-03-27T15:53:25.854Z</time></trkpt><trkpt lat="43.042909733726894" lon="10.595456131304186"><ele>34.5</ele><time>2026-03-27T15:53:26.854Z</time></trkpt><trkpt lat="43.04287387549221" lon="10.595607938197631"><ele>34.25</ele><time>2026-03-27T15:53:27.853Z</time></trkpt><trkpt lat="43.04280920450452" lon="10.595792998380835"><ele>34.0</ele><time>2026-03-27T15:53:28.852Z</time></trkpt><trkpt lat="43.04272955198394" lon="10.595959340624809"><ele>34.0</ele><time>2026-03-27T15:53:29.852Z</time></trkpt><trkpt lat="43.04267146981712" lon="10.596119910179633"><ele>34.0</ele><time>2026-03-27T15:53:30.851Z</time></trkpt><trkpt lat="43.04262474320697" lon="10.596278129145494"><ele>34.0</ele><time>2026-03-27T15:53:31.851Z</time></trkpt><trkpt lat="43.04258731530131" lon="10.5964017765192"><ele>34.0</ele><time>2026-03-27T15:53:32.85Z</time></trkpt><trkpt lat="43.04254909554084" lon="10.596507587828635"><ele>34.0</ele><time>2026-03-27T15:53:33.85Z</time></trkpt><trkpt lat="43.04247812705256" lon="10.596583172762786"><ele>34.8</ele><time>2026-03-27T15:53:35.849Z</time></trkpt><trkpt lat="43.04237889710504" lon="10.59663223611376"><ele>35.599999999999994</ele><time>2026-03-27T15:53:37.848Z</time></trkpt><trkpt lat="43.04229957743578" lon="10.59670498503334"><ele>36.4</ele><time>2026-03-27T15:53:39.847Z</time></trkpt><trkpt lat="43.04223617427277" lon="10.596811371859218"><ele>37.199999999999996</ele><time>2026-03-27T15:53:41.847Z</time></trkpt><trkpt lat="43.042171441072405" lon="10.596881068757165"><ele>38.0</ele><time>2026-03-27T15:53:44.846Z</time></trkpt><trkpt lat="43.04219086147422" lon="10.597006274217225"><ele>38.0</ele><time>2026-03-27T15:53:46.846Z</time></trkpt><trkpt lat="43.04217390396924" lon="10.597107220800941"><ele>38.0</ele><time>2026-03-27T15:53:48.845Z</time></trkpt><trkpt lat="43.04209828134475" lon="10.597072352195712"><ele>38.0</ele><time>2026-03-27T15:53:52.845Z</time></trkpt><trkpt lat="43.04202365950449" lon="10.59698390215447"><ele>38.0</ele><time>2026-03-27T15:53:54.844Z</time></trkpt><trkpt lat="43.04191886275947" lon="10.59696395994107"><ele>38.0</ele><time>2026-03-27T15:53:56.844Z</time></trkpt><trkpt lat="43.04181365383707" lon="10.596893755020282"><ele>38.0</ele><time>2026-03-27T15:53:58.844Z</time></trkpt><trkpt lat="43.04175641045735" lon="10.596855926523615"><ele>38.0</ele><time>2026-03-27T15:54:00.844Z</time></trkpt><trkpt lat="43.041703913620985" lon="10.596910048234014"><ele>38.0</ele><time>2026-03-27T15:54:05.843Z</time></trkpt><trkpt lat="43.041640390158044" lon="10.59689766003069"><ele>38.0</ele><time>2026-03-27T15:54:08.843Z</time></trkpt><trkpt lat="43.04157680593464" lon="10.596806435580346"><ele>38.0</ele><time>2026-03-27T15:54:12.843Z</time></trkpt><trkpt lat="43.04151869400874" lon="10.596746819394847"><ele>38.0</ele><time>2026-03-27T15:54:14.843Z</time></trkpt><trkpt lat="43.041437790447745" lon="10.596692576082946"><ele>38.0</ele><time>2026-03-27T15:54:16.843Z</time></trkpt><trkpt lat="43.041354300726226" lon="10.596637168027323"><ele>38.8</ele><time>2026-03-27T15:54:18.843Z</time></trkpt><trkpt lat="43.04131147517244" lon="10.596531267444417"><ele>39.599999999999994</ele><time>2026-03-27T15:54:20.843Z</time></trkpt><trkpt lat="43.04136636546356" lon="10.596439156287268"><ele>40.400000000000006</ele><time>2026-03-27T15:54:22.843Z</time></trkpt><trkpt lat="43.041431926093466" lon="10.596287030684572"><ele>41.2</ele><time>2026-03-27T15:54:30.843Z</time></trkpt><trkpt lat="43.04135756910537" lon="10.596221357525376"><ele>42.0</ele><time>2026-03-27T15:54:32.843Z</time></trkpt><trkpt lat="43.04127735155321" lon="10.596258582711455"><ele>42.0</ele><time>2026-03-27T15:54:34.843Z</time></trkpt><trkpt lat="43.041152432389275" lon="10.59621006223256"><ele>42.0</ele><time>2026-03-27T15:54:36.843Z</time></trkpt><trkpt lat="43.04110158847367" lon="10.596152164904957"><ele>42.0</ele><time>2026-03-27T15:54:37.843Z</time></trkpt><trkpt lat="43.04105750970937" lon="10.596069186701673"><ele>42.0</ele><time>2026-03-27T15:54:38.843Z</time></trkpt><trkpt lat="43.041023762784505" lon="10.595980455772121"><ele>42.0</ele><time>2026-03-27T15:54:39.842Z</time></trkpt><trkpt lat="43.04099545056868" lon="10.59589446399851"><ele>42.0</ele><time>2026-03-27T15:54:40.842Z</time></trkpt><trkpt lat="43.04096415068392" lon="10.595811326815681"><ele>41.833333333333336</ele><time>2026-03-27T15:54:41.842Z</time></trkpt><trkpt lat="43.04091202464787" lon="10.595745059984116"><ele>41.666666666666664</ele><time>2026-03-27T15:54:42.842Z</time></trkpt><trkpt lat="43.04083873663509" lon="10.595706028761734"><ele>41.5</ele><time>2026-03-27T15:54:43.841Z</time></trkpt><trkpt lat="43.04075950968797" lon="10.595659489659628"><ele>41.33333333333333</ele><time>2026-03-27T15:54:44.842Z</time></trkpt><trkpt lat="43.04069035472726" lon="10.595601200721003"><ele>41.166666666666664</ele><time>2026-03-27T15:54:45.842Z</time></trkpt><trkpt lat="43.04063852380654" lon="10.595543114320554"><ele>41.0</ele><time>2026-03-27T15:54:46.842Z</time></trkpt><trkpt lat="43.04056841696407" lon="10.595416451470824"><ele>41.0</ele><time>2026-03-27T15:54:48.842Z</time></trkpt><trkpt lat="43.04048304130522" lon="10.595374294650947"><ele>41.0</ele><time>2026-03-27T15:54:51.842Z</time></trkpt><trkpt lat="43.04040015077538" lon="10.595281939135793"><ele>41.0</ele><time>2026-03-27T15:54:53.841Z</time></trkpt><trkpt lat="43.04033744090937" lon="10.595198128181552"><ele>41.0</ele><time>2026-03-27T15:54:54.842Z</time></trkpt><trkpt lat="43.0402788853674" lon="10.595117496749102"><ele>41.0</ele><time>2026-03-27T15:54:55.842Z</time></trkpt><trkpt lat="43.04022801080439" lon="10.595033855443134"><ele>41.0</ele><time>2026-03-27T15:54:56.842Z</time></trkpt><trkpt lat="43.04019808981051" lon="10.594945283159356"><ele>41.83333333333333</ele><time>2026-03-27T15:54:57.842Z</time></trkpt><trkpt lat="43.040176984273856" lon="10.59482320641705"><ele>42.666666666666664</ele><time>2026-03-27T15:54:59.842Z</time></trkpt><trkpt lat="43.04018372766678" lon="10.594729424694908"><ele>43.5</ele><time>2026-03-27T15:55:03.842Z</time></trkpt><trkpt lat="43.04012302277539" lon="10.594669775818314"><ele>44.333333333333336</ele><time>2026-03-27T15:55:06.842Z</time></trkpt><trkpt lat="43.040188090882694" lon="10.59476229473691"><ele>45.16666666666667</ele><time>2026-03-27T15:55:16.842Z</time></trkpt><trkpt lat="43.04022455418041" lon="10.594881257746625"><ele>46.0</ele><time>2026-03-27T15:55:17.842Z</time></trkpt><trkpt lat="43.040261543269395" lon="10.59500127166557"><ele>46.0</ele><time>2026-03-27T15:55:18.842Z</time></trkpt><trkpt lat="43.040315151007036" lon="10.595124985790033"><ele>46.0</ele><time>2026-03-27T15:55:19.842Z</time></trkpt><trkpt lat="43.04038476765152" lon="10.595222639317045"><ele>46.0</ele><time>2026-03-27T15:55:20.842Z</time></trkpt><trkpt lat="43.04044932297281" lon="10.595283471956947"><ele>46.0</ele><time>2026-03-27T15:55:21.842Z</time></trkpt><trkpt lat="43.040530727627974" lon="10.595351678428928"><ele>46.0</ele><time>2026-03-27T15:55:23.842Z</time></trkpt><trkpt lat="43.040577585113056" lon="10.595290527009626"><ele>46.0</ele><time>2026-03-27T15:55:27.841Z</time></trkpt><trkpt lat="43.04061136450897" lon="10.595216208907317"><ele>46.0</ele><time>2026-03-27T15:55:32.841Z</time></trkpt><trkpt lat="43.040670208289754" lon="10.595288208821296"><ele>46.0</ele><time>2026-03-27T15:55:35.841Z</time></trkpt><trkpt lat="43.04069594874685" lon="10.595397571608146"><ele>46.0</ele><time>2026-03-27T15:55:38.841Z</time></trkpt><trkpt lat="43.04063522491658" lon="10.595443151917955"><ele>46.0</ele><time>2026-03-27T15:55:41.841Z</time></trkpt><trkpt lat="43.040576366177824" lon="10.595406222511942"><ele>46.0</ele><time>2026-03-27T15:55:42.841Z</time></trkpt><trkpt lat="43.04050404561136" lon="10.59535807019012"><ele>46.0</ele><time>2026-03-27T15:55:44.841Z</time></trkpt><trkpt lat="43.04043457666458" lon="10.595495288899567"><ele>44.75</ele><time>2026-03-27T15:55:46.841Z</time></trkpt><trkpt lat="43.0403475378031" lon="10.595670284325744"><ele>43.5</ele><time>2026-03-27T15:55:47.841Z</time></trkpt><trkpt lat="43.040275864373044" lon="10.595847620950622"><ele>42.25</ele><time>2026-03-27T15:55:48.841Z</time></trkpt><trkpt lat="43.04022354886779" lon="10.59593842190585"><ele>41.0</ele><time>2026-03-27T15:55:49.841Z</time></trkpt><trkpt lat="43.04016570630206" lon="10.595998139835512"><ele>41.0</ele><time>2026-03-27T15:55:51.841Z</time></trkpt><trkpt lat="43.04002138776526" lon="10.595951710769453"><ele>41.0</ele><time>2026-03-27T15:55:53.841Z</time></trkpt><trkpt lat="43.039911286680656" lon="10.595873065117413"><ele>41.0</ele><time>2026-03-27T15:55:54.841Z</time></trkpt><trkpt lat="43.03979528301837" lon="10.59579640989857"><ele>41.0</ele><time>2026-03-27T15:55:55.841Z</time></trkpt><trkpt lat="43.03967112478012" lon="10.595726918990044"><ele>39.8</ele><time>2026-03-27T15:55:56.841Z</time></trkpt><trkpt lat="43.03957520213862" lon="10.595649935056116"><ele>38.599999999999994</ele><time>2026-03-27T15:55:57.841Z</time></trkpt><trkpt lat="43.03949679024221" lon="10.595574951139108"><ele>37.4</ele><time>2026-03-27T15:55:58.841Z</time></trkpt><trkpt lat="43.03941463601183" lon="10.595514178438648"><ele>36.2</ele><time>2026-03-27T15:55:59.841Z</time></trkpt><trkpt lat="43.03932509001669" lon="10.595437501301609"><ele>35.0</ele><time>2026-03-27T15:56:00.841Z</time></trkpt><trkpt lat="43.03922148662647" lon="10.5953785603465"><ele>33.0</ele><time>2026-03-27T15:56:01.841Z</time></trkpt><trkpt lat="43.03912126991327" lon="10.595317187824984"><ele>31.0</ele><time>2026-03-27T15:56:02.841Z</time></trkpt><trkpt lat="43.039019695811334" lon="10.59529499973617"><ele>29.0</ele><time>2026-03-27T15:56:03.841Z</time></trkpt><trkpt lat="43.03893401678171" lon="10.59528542482088"><ele>27.0</ele><time>2026-03-27T15:56:04.841Z</time></trkpt><trkpt lat="43.038859554262935" lon="10.595207159876887"><ele>25.0</ele><time>2026-03-27T15:56:06.841Z</time></trkpt><trkpt lat="43.03882270962082" lon="10.595117049387904"><ele>25.0</ele><time>2026-03-27T15:56:08.841Z</time></trkpt><trkpt lat="43.038765575008995" lon="10.595046742006701"><ele>25.0</ele><time>2026-03-27T15:56:10.841Z</time></trkpt><trkpt lat="43.03864133583176" lon="10.594986817946626"><ele>25.0</ele><time>2026-03-27T15:56:13.841Z</time></trkpt><trkpt lat="43.03851499772802" lon="10.594972931525202"><ele>25.0</ele><time>2026-03-27T15:56:14.841Z</time></trkpt><trkpt lat="43.03836949652028" lon="10.59502915640011"><ele>23.666666666666668</ele><time>2026-03-27T15:56:15.841Z</time></trkpt><trkpt lat="43.03821377050137" lon="10.595133647156585"><ele>22.333333333333336</ele><time>2026-03-27T15:56:16.841Z</time></trkpt><trkpt lat="43.0380074430119" lon="10.595323717733711"><ele>21.0</ele><time>2026-03-27T15:56:17.841Z</time></trkpt><trkpt lat="43.037792123751785" lon="10.595500509621074"><ele>21.0</ele><time>2026-03-27T15:56:18.841Z</time></trkpt><trkpt lat="43.03759487096716" lon="10.595624474240454"><ele>21.0</ele><time>2026-03-27T15:56:19.841Z</time></trkpt><trkpt lat="43.03744836188537" lon="10.59572321391068"><ele>21.0</ele><time>2026-03-27T15:56:20.841Z</time></trkpt><trkpt lat="43.037327493082614" lon="10.595791936282804"><ele>20.0</ele><time>2026-03-27T15:56:21.841Z</time></trkpt><trkpt lat="43.037203385687235" lon="10.595862261562434"><ele>19.0</ele><time>2026-03-27T15:56:22.841Z</time></trkpt><trkpt lat="43.037082752337916" lon="10.595936518497812"><ele>18.0</ele><time>2026-03-27T15:56:23.841Z</time></trkpt><trkpt lat="43.0369491346518" lon="10.596032936442443"><ele>17.0</ele><time>2026-03-27T15:56:24.841Z</time></trkpt><trkpt lat="43.03681709708745" lon="10.596124421865465"><ele>17.0</ele><time>2026-03-27T15:56:25.841Z</time></trkpt><trkpt lat="43.03671742600535" lon="10.596203356863118"><ele>17.0</ele><time>2026-03-27T15:56:26.841Z</time></trkpt><trkpt lat="43.036644342168955" lon="10.596277078555252"><ele>17.0</ele><time>2026-03-27T15:56:27.841Z</time></trkpt><trkpt lat="43.03658872456501" lon="10.596327924760967"><ele>17.0</ele><time>2026-03-27T15:56:31.841Z</time></trkpt><trkpt lat="43.03649544042556" lon="10.596307043193793"><ele>17.0</ele><time>2026-03-27T15:56:32.841Z</time></trkpt><trkpt lat="43.03639303359408" lon="10.596195646211262"><ele>17.0</ele><time>2026-03-27T15:56:33.841Z</time></trkpt><trkpt lat="43.03623629981022" lon="10.596022018121154"><ele>17.0</ele><time>2026-03-27T15:56:34.841Z</time></trkpt><trkpt lat="43.03604938271168" lon="10.595816286438932"><ele>17.0</ele><time>2026-03-27T15:56:35.841Z</time></trkpt><trkpt lat="43.03586360512071" lon="10.595608935403183"><ele>16.666666666666668</ele><time>2026-03-27T15:56:36.841Z</time></trkpt><trkpt lat="43.035682607885796" lon="10.595448938123113"><ele>16.333333333333332</ele><time>2026-03-27T15:56:37.841Z</time></trkpt><trkpt lat="43.03551520023411" lon="10.595312162814345"><ele>16.0</ele><time>2026-03-27T15:56:38.841Z</time></trkpt><trkpt lat="43.03536252115503" lon="10.595236455967433"><ele>16.0</ele><time>2026-03-27T15:56:39.841Z</time></trkpt><trkpt lat="43.03522370492956" lon="10.59518806517638"><ele>16.0</ele><time>2026-03-27T15:56:40.841Z</time></trkpt><trkpt lat="43.03512688785647" lon="10.595141247828494"><ele>16.0</ele><time>2026-03-27T15:56:41.841Z</time></trkpt><trkpt lat="43.03506597520522" lon="10.595059182963885"><ele>16.0</ele><time>2026-03-27T15:56:42.841Z</time></trkpt><trkpt lat="43.03499378176328" lon="10.594943926507439"><ele>16.0</ele><time>2026-03-27T15:56:43.841Z</time></trkpt><trkpt lat="43.03491501479458" lon="10.594816441420416"><ele>16.0</ele><time>2026-03-27T15:56:44.841Z</time></trkpt><trkpt lat="43.034840466549014" lon="10.594729685907781"><ele>16.0</ele><time>2026-03-27T15:56:45.841Z</time></trkpt><trkpt lat="43.03460290553598" lon="10.594786302309092"><ele>16.0</ele><time>2026-03-27T15:56:53.84Z</time></trkpt><trkpt lat="43.03450950350003" lon="10.594942613558837"><ele>16.0</ele><time>2026-03-27T15:56:54.84Z</time></trkpt><trkpt lat="43.034394690460424" lon="10.595084574129444"><ele>16.0</ele><time>2026-03-27T15:56:55.84Z</time></trkpt><trkpt lat="43.03427170366456" lon="10.595229917511455"><ele>16.0</ele><time>2026-03-27T15:56:56.84Z</time></trkpt><trkpt lat="43.03415109770274" lon="10.595389949671087"><ele>16.333333333333332</ele><time>2026-03-27T15:56:57.841Z</time></trkpt><trkpt lat="43.03403343400131" lon="10.595528547541791"><ele>16.666666666666668</ele><time>2026-03-27T15:56:58.841Z</time></trkpt><trkpt lat="43.033914717811044" lon="10.595670238744965"><ele>17.0</ele><time>2026-03-27T15:56:59.841Z</time></trkpt><trkpt lat="43.03380206102211" lon="10.595795899891906"><ele>17.0</ele><time>2026-03-27T15:57:00.84Z</time></trkpt><trkpt lat="43.033692713111115" lon="10.595917550558585"><ele>17.0</ele><time>2026-03-27T15:57:01.84Z</time></trkpt><trkpt lat="43.03358886925429" lon="10.59604902102886"><ele>17.0</ele><time>2026-03-27T15:57:02.84Z</time></trkpt><trkpt lat="43.03347639253576" lon="10.596180947938498"><ele>17.0</ele><time>2026-03-27T15:57:03.84Z</time></trkpt><trkpt lat="43.03336193976612" lon="10.596321962099303"><ele>16.333333333333336</ele><time>2026-03-27T15:57:04.84Z</time></trkpt><trkpt lat="43.03324298904709" lon="10.596476097493413"><ele>15.666666666666668</ele><time>2026-03-27T15:57:05.84Z</time></trkpt><trkpt lat="43.033120266372705" lon="10.5966274619914"><ele>15.0</ele><time>2026-03-27T15:57:06.84Z</time></trkpt><trkpt lat="43.03299851709964" lon="10.596767036767647"><ele>15.0</ele><time>2026-03-27T15:57:07.84Z</time></trkpt><trkpt lat="43.03289032212413" lon="10.596896154795628"><ele>15.0</ele><time>2026-03-27T15:57:08.84Z</time></trkpt><trkpt lat="43.0327620329624" lon="10.59704766187868"><ele>15.0</ele><time>2026-03-27T15:57:09.84Z</time></trkpt><trkpt lat="43.03261694694625" lon="10.597243437479278"><ele>15.0</ele><time>2026-03-27T15:57:10.84Z</time></trkpt><trkpt lat="43.032495674387334" lon="10.597393947475252"><ele>15.0</ele><time>2026-03-27T15:57:11.84Z</time></trkpt><trkpt lat="43.03240224570273" lon="10.59751210683732"><ele>15.0</ele><time>2026-03-27T15:57:12.84Z</time></trkpt><trkpt lat="43.0323139409329" lon="10.597606514814037"><ele>15.0</ele><time>2026-03-27T15:57:13.84Z</time></trkpt><trkpt lat="43.032233801677826" lon="10.597689129930751"><ele>14.8</ele><time>2026-03-27T15:57:14.84Z</time></trkpt><trkpt lat="43.032166486964115" lon="10.597773916515726"><ele>14.6</ele><time>2026-03-27T15:57:15.84Z</time></trkpt><trkpt lat="43.032110460022984" lon="10.59784294031377"><ele>14.399999999999999</ele><time>2026-03-27T15:57:16.84Z</time></trkpt><trkpt lat="43.031997380208836" lon="10.597830696382815"><ele>14.2</ele><time>2026-03-27T15:57:18.84Z</time></trkpt><trkpt lat="43.0319298884474" lon="10.597735845711984"><ele>14.0</ele><time>2026-03-27T15:57:19.84Z</time></trkpt><trkpt lat="43.03185984620586" lon="10.597577809923605"><ele>13.0</ele><time>2026-03-27T15:57:20.84Z</time></trkpt><trkpt lat="43.03178014592547" lon="10.597488762244028"><ele>13.0</ele><time>2026-03-27T15:57:21.84Z</time></trkpt><trkpt lat="43.031732757645585" lon="10.597409806715378"><ele>13.0</ele><time>2026-03-27T15:57:22.84Z</time></trkpt><trkpt lat="43.03178993788197" lon="10.597313108131225"><ele>13.0</ele><time>2026-03-27T15:57:25.84Z</time></trkpt><trkpt lat="43.03184469941659" lon="10.597246905248761"><ele>13.0</ele><time>2026-03-27T15:57:28.84Z</time></trkpt></trkseg></trk></gpx>